sensor_id;sensor_type;location;lat;lon;timestamp;P1;durP1;ratioP1;P2;durP2;ratioP2
4694;SDS011;2361;49.540;8.390;2023-11-19T00:00:50;2.90;;;2.70;;
4694;SDS011;2361;49.540;8.390;2023-11-19T00:03:14;3.03;;;2.72;;
4694;SDS011;2361;49.540;8.390;2023-11-19T00:05:36;3.08;;;2.50;;
4694;SDS011;2361;49.540;8.390;2023-11-19T00:07:58;3.17;;;2.60;;
4694;SDS011;2361;49.540;8.390;2023-11-19T00:10:20;2.75;;;2.30;;
4694;SDS011;2361;49.540;8.390;2023-11-19T00:12:44;2.50;;;2.40;;
4694;SDS011;2361;49.540;8.390;2023-11-19T00:15:08;2.60;;;2.40;;
4694;SDS011;2361;49.540;8.390;2023-11-19T00:17:33;2.25;;;2.15;;
4694;SDS011;2361;49.540;8.390;2023-11-19T00:19:54;3.30;;;2.20;;
4694;SDS011;2361;49.540;8.390;2023-11-19T00:22:17;2.50;;;2.40;;
4694;SDS011;2361;49.540;8.390;2023-11-19T00:24:39;2.92;;;2.65;;
4694;SDS011;2361;49.540;8.390;2023-11-19T00:27:00;2.47;;;2.38;;
4694;SDS011;2361;49.540;8.390;2023-11-19T00:29:22;2.20;;;2.10;;
4694;SDS011;2361;49.540;8.390;2023-11-19T00:31:44;2.30;;;2.20;;
4694;SDS011;2361;49.540;8.390;2023-11-19T00:34:06;2.40;;;2.20;;
4694;SDS011;2361;49.540;8.390;2023-11-19T00:36:29;3.33;;;2.55;;
4694;SDS011;2361;49.540;8.390;2023-11-19T00:38:53;2.40;;;2.30;;
4694;SDS011;2361;49.540;8.390;2023-11-19T00:41:16;2.20;;;2.10;;
4694;SDS011;2361;49.540;8.390;2023-11-19T00:43:38;2.57;;;2.37;;
4694;SDS011;2361;49.540;8.390;2023-11-19T00:46:00;2.60;;;2.40;;
4694;SDS011;2361;49.540;8.390;2023-11-19T00:48:23;2.50;;;2.30;;
4694;SDS011;2361;49.540;8.390;2023-11-19T00:50:45;2.45;;;2.25;;
4694;SDS011;2361;49.540;8.390;2023-11-19T00:53:07;2.30;;;2.20;;
4694;SDS011;2361;49.540;8.390;2023-11-19T00:55:29;2.55;;;1.90;;
4694;SDS011;2361;49.540;8.390;2023-11-19T00:57:51;1.90;;;1.80;;
4694;SDS011;2361;49.540;8.390;2023-11-19T01:00:13;2.00;;;1.90;;
4694;SDS011;2361;49.540;8.390;2023-11-19T01:02:48;1.80;;;1.70;;
4694;SDS011;2361;49.540;8.390;2023-11-19T01:05:13;1.80;;;1.70;;
4694;SDS011;2361;49.540;8.390;2023-11-19T01:07:41;1.90;;;1.80;;
4694;SDS011;2361;49.540;8.390;2023-11-19T01:10:04;1.80;;;1.70;;
4694;SDS011;2361;49.540;8.390;2023-11-19T01:12:28;1.80;;;1.70;;
4694;SDS011;2361;49.540;8.390;2023-11-19T01:14:52;1.70;;;1.60;;
4694;SDS011;2361;49.540;8.390;2023-11-19T01:17:14;1.30;;;1.30;;
4694;SDS011;2361;49.540;8.390;2023-11-19T01:19:37;1.90;;;1.48;;
4694;SDS011;2361;49.540;8.390;2023-11-19T01:21:59;1.60;;;1.50;;
4694;SDS011;2361;49.540;8.390;2023-11-19T01:24:21;1.00;;;1.00;;
4694;SDS011;2361;49.540;8.390;2023-11-19T01:26:43;0.90;;;0.90;;
4694;SDS011;2361;49.540;8.390;2023-11-19T01:29:08;1.00;;;1.00;;
4694;SDS011;2361;49.540;8.390;2023-11-19T01:31:30;1.00;;;0.90;;
4694;SDS011;2361;49.540;8.390;2023-11-19T01:33:55;0.80;;;0.80;;
4694;SDS011;2361;49.540;8.390;2023-11-19T01:36:17;0.73;;;0.70;;
4694;SDS011;2361;49.540;8.390;2023-11-19T01:38:39;0.70;;;0.70;;
4694;SDS011;2361;49.540;8.390;2023-11-19T01:41:02;0.57;;;0.57;;
4694;SDS011;2361;49.540;8.390;2023-11-19T01:43:37;0.60;;;0.60;;
4694;SDS011;2361;49.540;8.390;2023-11-19T01:46:02;0.80;;;0.70;;
4694;SDS011;2361;49.540;8.390;2023-11-19T01:48:26;0.60;;;0.60;;
4694;SDS011;2361;49.540;8.390;2023-11-19T01:50:48;0.60;;;0.60;;
4694;SDS011;2361;49.540;8.390;2023-11-19T01:53:23;0.60;;;0.60;;
4694;SDS011;2361;49.540;8.390;2023-11-19T01:55:46;1.00;;;0.70;;
4694;SDS011;2361;49.540;8.390;2023-11-19T01:58:09;0.70;;;0.70;;
4694;SDS011;2361;49.540;8.390;2023-11-19T02:00:31;0.60;;;0.60;;
4694;SDS011;2361;49.540;8.390;2023-11-19T02:02:54;0.70;;;0.70;;
4694;SDS011;2361;49.540;8.390;2023-11-19T02:05:17;0.68;;;0.68;;
4694;SDS011;2361;49.540;8.390;2023-11-19T02:07:39;0.63;;;0.63;;
4694;SDS011;2361;49.540;8.390;2023-11-19T02:10:02;0.70;;;0.70;;
4694;SDS011;2361;49.540;8.390;2023-11-19T02:12:26;0.70;;;0.70;;
4694;SDS011;2361;49.540;8.390;2023-11-19T02:14:54;0.70;;;0.70;;
4694;SDS011;2361;49.540;8.390;2023-11-19T02:17:29;0.80;;;0.80;;
4694;SDS011;2361;49.540;8.390;2023-11-19T02:19:55;0.80;;;0.80;;
4694;SDS011;2361;49.540;8.390;2023-11-19T02:22:17;1.03;;;1.03;;
4694;SDS011;2361;49.540;8.390;2023-11-19T02:24:39;1.30;;;1.20;;
4694;SDS011;2361;49.540;8.390;2023-11-19T02:27:08;1.60;;;1.50;;
4694;SDS011;2361;49.540;8.390;2023-11-19T02:29:38;1.50;;;1.40;;
4694;SDS011;2361;49.540;8.390;2023-11-19T02:31:59;1.70;;;1.60;;
4694;SDS011;2361;49.540;8.390;2023-11-19T02:34:24;1.50;;;1.40;;
4694;SDS011;2361;49.540;8.390;2023-11-19T02:36:46;1.20;;;1.20;;
4694;SDS011;2361;49.540;8.390;2023-11-19T02:39:08;1.00;;;1.00;;
4694;SDS011;2361;49.540;8.390;2023-11-19T02:41:33;0.80;;;0.80;;
4694;SDS011;2361;49.540;8.390;2023-11-19T02:43:55;1.80;;;0.85;;
4694;SDS011;2361;49.540;8.390;2023-11-19T02:46:17;0.90;;;0.90;;
4694;SDS011;2361;49.540;8.390;2023-11-19T02:48:40;0.60;;;0.60;;
4694;SDS011;2361;49.540;8.390;2023-11-19T02:51:04;0.55;;;0.55;;
4694;SDS011;2361;49.540;8.390;2023-11-19T02:53:31;0.50;;;0.50;;
4694;SDS011;2361;49.540;8.390;2023-11-19T02:55:53;0.70;;;0.50;;
4694;SDS011;2361;49.540;8.390;2023-11-19T02:58:15;1.08;;;0.50;;
4694;SDS011;2361;49.540;8.390;2023-11-19T03:00:41;0.40;;;0.40;;
4694;SDS011;2361;49.540;8.390;2023-11-19T03:03:10;0.50;;;0.50;;
4694;SDS011;2361;49.540;8.390;2023-11-19T03:05:41;0.52;;;0.52;;
4694;SDS011;2361;49.540;8.390;2023-11-19T03:08:05;0.80;;;0.40;;
4694;SDS011;2361;49.540;8.390;2023-11-19T03:10:28;0.40;;;0.40;;
4694;SDS011;2361;49.540;8.390;2023-11-19T03:12:50;0.50;;;0.50;;
4694;SDS011;2361;49.540;8.390;2023-11-19T03:15:12;0.40;;;0.40;;
4694;SDS011;2361;49.540;8.390;2023-11-19T03:17:38;0.60;;;0.60;;
4694;SDS011;2361;49.540;8.390;2023-11-19T03:20:01;0.50;;;0.50;;
4694;SDS011;2361;49.540;8.390;2023-11-19T03:22:23;0.50;;;0.50;;
4694;SDS011;2361;49.540;8.390;2023-11-19T03:24:45;0.40;;;0.40;;
4694;SDS011;2361;49.540;8.390;2023-11-19T03:27:07;0.50;;;0.50;;
4694;SDS011;2361;49.540;8.390;2023-11-19T03:29:29;0.90;;;0.50;;
4694;SDS011;2361;49.540;8.390;2023-11-19T03:31:51;0.50;;;0.50;;
4694;SDS011;2361;49.540;8.390;2023-11-19T03:34:13;0.40;;;0.40;;
4694;SDS011;2361;49.540;8.390;2023-11-19T03:36:35;0.60;;;0.60;;
4694;SDS011;2361;49.540;8.390;2023-11-19T03:38:57;0.60;;;0.60;;
4694;SDS011;2361;49.540;8.390;2023-11-19T03:41:18;0.50;;;0.50;;
4694;SDS011;2361;49.540;8.390;2023-11-19T03:43:40;0.60;;;0.60;;
4694;SDS011;2361;49.540;8.390;2023-11-19T03:46:02;0.60;;;0.60;;
4694;SDS011;2361;49.540;8.390;2023-11-19T03:48:26;0.60;;;0.60;;
4694;SDS011;2361;49.540;8.390;2023-11-19T03:50:48;0.60;;;0.60;;
4694;SDS011;2361;49.540;8.390;2023-11-19T03:53:11;0.50;;;0.50;;
4694;SDS011;2361;49.540;8.390;2023-11-19T03:55:33;1.08;;;0.65;;
4694;SDS011;2361;49.540;8.390;2023-11-19T03:57:55;0.63;;;0.50;;
4694;SDS011;2361;49.540;8.390;2023-11-19T04:00:17;0.50;;;0.50;;
4694;SDS011;2361;49.540;8.390;2023-11-19T04:02:42;1.77;;;0.60;;
4694;SDS011;2361;49.540;8.390;2023-11-19T04:05:04;0.80;;;0.80;;
4694;SDS011;2361;49.540;8.390;2023-11-19T04:07:26;0.70;;;0.70;;
4694;SDS011;2361;49.540;8.390;2023-11-19T04:09:48;0.70;;;0.70;;
4694;SDS011;2361;49.540;8.390;2023-11-19T04:12:10;0.70;;;0.70;;
4694;SDS011;2361;49.540;8.390;2023-11-19T04:14:32;0.60;;;0.60;;
4694;SDS011;2361;49.540;8.390;2023-11-19T04:16:54;1.00;;;0.80;;
4694;SDS011;2361;49.540;8.390;2023-11-19T04:19:16;0.70;;;0.70;;
4694;SDS011;2361;49.540;8.390;2023-11-19T04:21:39;0.65;;;0.65;;
4694;SDS011;2361;49.540;8.390;2023-11-19T04:24:03;0.80;;;0.80;;
4694;SDS011;2361;49.540;8.390;2023-11-19T04:26:25;1.10;;;0.70;;
4694;SDS011;2361;49.540;8.390;2023-11-19T04:28:46;0.80;;;0.80;;
4694;SDS011;2361;49.540;8.390;2023-11-19T04:31:10;1.00;;;1.00;;
4694;SDS011;2361;49.540;8.390;2023-11-19T04:33:32;0.70;;;0.70;;
4694;SDS011;2361;49.540;8.390;2023-11-19T04:35:54;1.17;;;0.80;;
4694;SDS011;2361;49.540;8.390;2023-11-19T04:38:16;0.70;;;0.70;;
4694;SDS011;2361;49.540;8.390;2023-11-19T04:40:38;0.88;;;0.88;;
4694;SDS011;2361;49.540;8.390;2023-11-19T04:43:00;0.80;;;0.50;;
4694;SDS011;2361;49.540;8.390;2023-11-19T04:45:22;0.90;;;0.80;;
4694;SDS011;2361;49.540;8.390;2023-11-19T04:47:43;0.70;;;0.70;;
4694;SDS011;2361;49.540;8.390;2023-11-19T04:50:06;1.40;;;0.90;;
4694;SDS011;2361;49.540;8.390;2023-11-19T04:52:31;0.70;;;0.70;;
4694;SDS011;2361;49.540;8.390;2023-11-19T04:54:53;0.70;;;0.70;;
4694;SDS011;2361;49.540;8.390;2023-11-19T04:57:15;0.88;;;0.88;;
4694;SDS011;2361;49.540;8.390;2023-11-19T04:59:38;0.70;;;0.70;;
4694;SDS011;2361;49.540;8.390;2023-11-19T05:02:00;0.70;;;0.70;;
4694;SDS011;2361;49.540;8.390;2023-11-19T05:04:22;0.73;;;0.73;;
4694;SDS011;2361;49.540;8.390;2023-11-19T05:06:44;1.00;;;0.90;;
4694;SDS011;2361;49.540;8.390;2023-11-19T05:09:06;0.70;;;0.70;;
4694;SDS011;2361;49.540;8.390;2023-11-19T05:11:29;0.70;;;0.70;;
4694;SDS011;2361;49.540;8.390;2023-11-19T05:13:51;0.80;;;0.80;;
4694;SDS011;2361;49.540;8.390;2023-11-19T05:16:12;0.60;;;0.60;;
4694;SDS011;2361;49.540;8.390;2023-11-19T05:18:35;0.70;;;0.70;;
4694;SDS011;2361;49.540;8.390;2023-11-19T05:20:57;0.70;;;0.70;;
4694;SDS011;2361;49.540;8.390;2023-11-19T05:23:19;0.70;;;0.70;;
4694;SDS011;2361;49.540;8.390;2023-11-19T05:25:42;0.80;;;0.80;;
4694;SDS011;2361;49.540;8.390;2023-11-19T05:28:03;0.98;;;0.90;;
4694;SDS011;2361;49.540;8.390;2023-11-19T05:30:25;0.80;;;0.80;;
4694;SDS011;2361;49.540;8.390;2023-11-19T05:32:47;0.90;;;0.90;;
4694;SDS011;2361;49.540;8.390;2023-11-19T05:35:10;0.90;;;0.90;;
4694;SDS011;2361;49.540;8.390;2023-11-19T05:37:33;0.60;;;0.60;;
4694;SDS011;2361;49.540;8.390;2023-11-19T05:39:56;1.10;;;1.10;;
4694;SDS011;2361;49.540;8.390;2023-11-19T05:42:18;0.90;;;0.80;;
4694;SDS011;2361;49.540;8.390;2023-11-19T05:44:40;0.85;;;0.85;;
4694;SDS011;2361;49.540;8.390;2023-11-19T05:47:02;0.80;;;0.80;;
4694;SDS011;2361;49.540;8.390;2023-11-19T05:49:24;0.80;;;0.80;;
4694;SDS011;2361;49.540;8.390;2023-11-19T05:51:46;1.00;;;0.90;;
4694;SDS011;2361;49.540;8.390;2023-11-19T05:54:08;0.90;;;0.90;;
4694;SDS011;2361;49.540;8.390;2023-11-19T05:56:31;0.90;;;0.90;;
4694;SDS011;2361;49.540;8.390;2023-11-19T05:58:54;0.63;;;0.63;;
4694;SDS011;2361;49.540;8.390;2023-11-19T06:01:17;0.80;;;0.80;;
4694;SDS011;2361;49.540;8.390;2023-11-19T06:03:39;0.95;;;0.95;;
4694;SDS011;2361;49.540;8.390;2023-11-19T06:06:01;1.00;;;1.00;;
4694;SDS011;2361;49.540;8.390;2023-11-19T06:08:23;1.00;;;0.90;;
4694;SDS011;2361;49.540;8.390;2023-11-19T06:10:48;1.88;;;0.90;;
4694;SDS011;2361;49.540;8.390;2023-11-19T06:13:12;0.80;;;0.80;;
4694;SDS011;2361;49.540;8.390;2023-11-19T06:15:37;0.90;;;0.90;;
4694;SDS011;2361;49.540;8.390;2023-11-19T06:17:59;1.20;;;0.90;;
4694;SDS011;2361;49.540;8.390;2023-11-19T06:20:23;1.20;;;0.95;;
4694;SDS011;2361;49.540;8.390;2023-11-19T06:22:45;1.30;;;1.20;;
4694;SDS011;2361;49.540;8.390;2023-11-19T06:25:07;1.15;;;1.00;;
4694;SDS011;2361;49.540;8.390;2023-11-19T06:27:30;0.90;;;0.90;;
4694;SDS011;2361;49.540;8.390;2023-11-19T06:29:52;0.90;;;0.90;;
4694;SDS011;2361;49.540;8.390;2023-11-19T06:32:13;1.70;;;0.90;;
4694;SDS011;2361;49.540;8.390;2023-11-19T06:34:35;1.00;;;1.00;;
4694;SDS011;2361;49.540;8.390;2023-11-19T06:37:00;1.50;;;0.93;;
4694;SDS011;2361;49.540;8.390;2023-11-19T06:39:24;1.05;;;1.05;;
4694;SDS011;2361;49.540;8.390;2023-11-19T06:41:46;1.10;;;1.00;;
4694;SDS011;2361;49.540;8.390;2023-11-19T06:44:08;1.00;;;0.90;;
4694;SDS011;2361;49.540;8.390;2023-11-19T06:46:32;1.00;;;1.00;;
4694;SDS011;2361;49.540;8.390;2023-11-19T06:48:54;1.00;;;1.00;;
4694;SDS011;2361;49.540;8.390;2023-11-19T06:51:16;1.20;;;1.10;;
4694;SDS011;2361;49.540;8.390;2023-11-19T06:53:38;0.97;;;0.97;;
4694;SDS011;2361;49.540;8.390;2023-11-19T06:56:03;0.90;;;0.90;;
4694;SDS011;2361;49.540;8.390;2023-11-19T06:58:27;1.10;;;0.98;;
4694;SDS011;2361;49.540;8.390;2023-11-19T07:00:49;1.00;;;1.00;;
4694;SDS011;2361;49.540;8.390;2023-11-19T07:03:12;0.90;;;0.90;;
4694;SDS011;2361;49.540;8.390;2023-11-19T07:05:37;0.90;;;0.90;;
4694;SDS011;2361;49.540;8.390;2023-11-19T07:08:00;1.00;;;1.00;;
4694;SDS011;2361;49.540;8.390;2023-11-19T07:10:22;0.90;;;0.90;;
4694;SDS011;2361;49.540;8.390;2023-11-19T07:12:44;1.10;;;1.10;;
4694;SDS011;2361;49.540;8.390;2023-11-19T07:15:06;1.20;;;1.00;;
4694;SDS011;2361;49.540;8.390;2023-11-19T07:17:30;0.93;;;0.93;;
4694;SDS011;2361;49.540;8.390;2023-11-19T07:19:52;0.90;;;0.90;;
4694;SDS011;2361;49.540;8.390;2023-11-19T07:22:15;1.50;;;1.00;;
4694;SDS011;2361;49.540;8.390;2023-11-19T07:24:40;0.98;;;0.90;;
4694;SDS011;2361;49.540;8.390;2023-11-19T07:27:02;2.03;;;0.90;;
4694;SDS011;2361;49.540;8.390;2023-11-19T07:29:25;1.40;;;0.90;;
4694;SDS011;2361;49.540;8.390;2023-11-19T07:31:50;0.90;;;0.90;;
4694;SDS011;2361;49.540;8.390;2023-11-19T07:34:12;1.70;;;1.10;;
4694;SDS011;2361;49.540;8.390;2023-11-19T07:36:35;1.60;;;1.10;;
4694;SDS011;2361;49.540;8.390;2023-11-19T07:38:57;1.83;;;1.60;;
4694;SDS011;2361;49.540;8.390;2023-11-19T07:41:20;1.70;;;1.60;;
4694;SDS011;2361;49.540;8.390;2023-11-19T07:43:45;1.00;;;1.00;;
4694;SDS011;2361;49.540;8.390;2023-11-19T07:46:11;0.95;;;0.95;;
4694;SDS011;2361;49.540;8.390;2023-11-19T07:48:34;1.30;;;1.20;;
4694;SDS011;2361;49.540;8.390;2023-11-19T07:50:57;2.50;;;1.02;;
4694;SDS011;2361;49.540;8.390;2023-11-19T07:53:19;1.30;;;0.80;;
4694;SDS011;2361;49.540;8.390;2023-11-19T07:55:41;2.60;;;0.90;;
4694;SDS011;2361;49.540;8.390;2023-11-19T07:58:03;0.90;;;0.90;;
4694;SDS011;2361;49.540;8.390;2023-11-19T08:00:25;2.42;;;1.10;;
4694;SDS011;2361;49.540;8.390;2023-11-19T08:02:47;1.00;;;0.90;;
4694;SDS011;2361;49.540;8.390;2023-11-19T08:05:09;0.90;;;0.90;;
4694;SDS011;2361;49.540;8.390;2023-11-19T08:07:31;1.50;;;1.10;;
4694;SDS011;2361;49.540;8.390;2023-11-19T08:09:53;2.80;;;1.10;;
4694;SDS011;2361;49.540;8.390;2023-11-19T08:12:15;1.13;;;1.13;;
4694;SDS011;2361;49.540;8.390;2023-11-19T08:14:38;1.27;;;1.17;;
4694;SDS011;2361;49.540;8.390;2023-11-19T08:17:00;1.00;;;1.00;;
4694;SDS011;2361;49.540;8.390;2023-11-19T08:19:22;1.10;;;1.00;;
4694;SDS011;2361;49.540;8.390;2023-11-19T08:21:44;1.17;;;0.75;;
4694;SDS011;2361;49.540;8.390;2023-11-19T08:24:06;0.90;;;0.90;;
4694;SDS011;2361;49.540;8.390;2023-11-19T08:26:28;1.10;;;1.00;;
4694;SDS011;2361;49.540;8.390;2023-11-19T08:28:50;1.00;;;1.00;;
4694;SDS011;2361;49.540;8.390;2023-11-19T08:31:13;1.45;;;1.10;;
4694;SDS011;2361;49.540;8.390;2023-11-19T08:33:35;1.25;;;0.90;;
4694;SDS011;2361;49.540;8.390;2023-11-19T08:35:57;1.20;;;1.10;;
4694;SDS011;2361;49.540;8.390;2023-11-19T08:38:19;5.18;;;1.10;;
4694;SDS011;2361;49.540;8.390;2023-11-19T08:40:44;1.30;;;1.20;;
4694;SDS011;2361;49.540;8.390;2023-11-19T08:43:06;1.90;;;1.10;;
4694;SDS011;2361;49.540;8.390;2023-11-19T08:45:29;1.10;;;1.10;;
4694;SDS011;2361;49.540;8.390;2023-11-19T08:47:53;1.00;;;1.00;;
4694;SDS011;2361;49.540;8.390;2023-11-19T08:50:15;1.40;;;1.10;;
4694;SDS011;2361;49.540;8.390;2023-11-19T08:52:37;0.90;;;0.90;;
4694;SDS011;2361;49.540;8.390;2023-11-19T08:54:59;0.80;;;0.80;;
4694;SDS011;2361;49.540;8.390;2023-11-19T08:57:21;1.45;;;1.35;;
4694;SDS011;2361;49.540;8.390;2023-11-19T08:59:43;2.58;;;1.08;;
4694;SDS011;2361;49.540;8.390;2023-11-19T09:02:07;1.02;;;0.93;;
4694;SDS011;2361;49.540;8.390;2023-11-19T09:04:29;1.80;;;0.90;;
4694;SDS011;2361;49.540;8.390;2023-11-19T09:06:51;1.25;;;1.15;;
4694;SDS011;2361;49.540;8.390;2023-11-19T09:09:13;1.10;;;1.00;;
4694;SDS011;2361;49.540;8.390;2023-11-19T09:11:35;2.10;;;1.30;;
4694;SDS011;2361;49.540;8.390;2023-11-19T09:13:58;1.65;;;1.10;;
4694;SDS011;2361;49.540;8.390;2023-11-19T09:16:20;1.00;;;1.00;;
4694;SDS011;2361;49.540;8.390;2023-11-19T09:18:43;1.80;;;1.20;;
4694;SDS011;2361;49.540;8.390;2023-11-19T09:21:05;1.85;;;1.30;;
4694;SDS011;2361;49.540;8.390;2023-11-19T09:23:27;2.10;;;1.10;;
4694;SDS011;2361;49.540;8.390;2023-11-19T09:25:54;1.70;;;1.10;;
4694;SDS011;2361;49.540;8.390;2023-11-19T09:28:16;1.00;;;1.00;;
4694;SDS011;2361;49.540;8.390;2023-11-19T09:30:38;1.40;;;1.30;;
4694;SDS011;2361;49.540;8.390;2023-11-19T09:33:00;1.40;;;1.10;;
4694;SDS011;2361;49.540;8.390;2023-11-19T09:35:23;1.20;;;1.00;;
4694;SDS011;2361;49.540;8.390;2023-11-19T09:37:48;2.42;;;1.38;;
4694;SDS011;2361;49.540;8.390;2023-11-19T09:40:10;1.20;;;1.10;;
4694;SDS011;2361;49.540;8.390;2023-11-19T09:42:32;1.73;;;0.90;;
4694;SDS011;2361;49.540;8.390;2023-11-19T09:45:10;1.65;;;1.10;;
4694;SDS011;2361;49.540;8.390;2023-11-19T09:47:37;3.90;;;1.30;;
4694;SDS011;2361;49.540;8.390;2023-11-19T09:49:59;2.20;;;1.20;;
4694;SDS011;2361;49.540;8.390;2023-11-19T09:52:21;2.58;;;1.20;;
4694;SDS011;2361;49.540;8.390;2023-11-19T09:54:43;2.13;;;1.20;;
4694;SDS011;2361;49.540;8.390;2023-11-19T09:57:05;1.92;;;1.00;;
4694;SDS011;2361;49.540;8.390;2023-11-19T09:59:30;1.27;;;1.10;;
4694;SDS011;2361;49.540;8.390;2023-11-19T10:01:53;2.30;;;1.25;;
4694;SDS011;2361;49.540;8.390;2023-11-19T10:04:15;1.10;;;1.10;;
4694;SDS011;2361;49.540;8.390;2023-11-19T10:06:38;2.50;;;1.20;;
4694;SDS011;2361;49.540;8.390;2023-11-19T10:09:00;1.50;;;1.40;;
4694;SDS011;2361;49.540;8.390;2023-11-19T10:11:22;2.50;;;1.40;;
4694;SDS011;2361;49.540;8.390;2023-11-19T10:13:44;1.58;;;1.48;;
4694;SDS011;2361;49.540;8.390;2023-11-19T10:16:09;1.00;;;1.00;;
4694;SDS011;2361;49.540;8.390;2023-11-19T10:18:34;1.70;;;1.15;;
4694;SDS011;2361;49.540;8.390;2023-11-19T10:21:01;2.40;;;1.00;;
4694;SDS011;2361;49.540;8.390;2023-11-19T10:23:23;2.50;;;1.10;;
4694;SDS011;2361;49.540;8.390;2023-11-19T10:25:45;2.40;;;1.30;;
4694;SDS011;2361;49.540;8.390;2023-11-19T10:28:07;1.80;;;1.20;;
4694;SDS011;2361;49.540;8.390;2023-11-19T10:30:29;2.35;;;1.50;;
4694;SDS011;2361;49.540;8.390;2023-11-19T10:33:07;1.20;;;1.10;;
4694;SDS011;2361;49.540;8.390;2023-11-19T10:35:54;2.50;;;1.40;;
4694;SDS011;2361;49.540;8.390;2023-11-19T10:38:19;1.30;;;1.10;;
4694;SDS011;2361;49.540;8.390;2023-11-19T10:40:43;2.13;;;1.27;;
4694;SDS011;2361;49.540;8.390;2023-11-19T10:43:05;3.00;;;1.10;;
4694;SDS011;2361;49.540;8.390;2023-11-19T10:45:30;2.20;;;1.35;;
4694;SDS011;2361;49.540;8.390;2023-11-19T10:47:53;1.02;;;1.00;;
4694;SDS011;2361;49.540;8.390;2023-11-19T10:50:17;1.50;;;1.20;;
4694;SDS011;2361;49.540;8.390;2023-11-19T10:52:38;2.67;;;1.30;;
4694;SDS011;2361;49.540;8.390;2023-11-19T10:55:01;1.73;;;1.27;;
4694;SDS011;2361;49.540;8.390;2023-11-19T10:57:26;2.20;;;1.10;;
4694;SDS011;2361;49.540;8.390;2023-11-19T10:59:55;2.80;;;1.00;;
4694;SDS011;2361;49.540;8.390;2023-11-19T11:02:24;1.83;;;1.20;;
4694;SDS011;2361;49.540;8.390;2023-11-19T11:04:48;1.20;;;1.10;;
4694;SDS011;2361;49.540;8.390;2023-11-19T11:07:12;3.38;;;1.30;;
4694;SDS011;2361;49.540;8.390;2023-11-19T11:09:37;10.57;;;6.05;;
4694;SDS011;2361;49.540;8.390;2023-11-19T11:12:00;1.73;;;1.10;;
4694;SDS011;2361;49.540;8.390;2023-11-19T11:14:24;3.28;;;1.20;;
4694;SDS011;2361;49.540;8.390;2023-11-19T11:16:48;5.00;;;1.40;;
4694;SDS011;2361;49.540;8.390;2023-11-19T11:19:11;1.30;;;1.20;;
4694;SDS011;2361;49.540;8.390;2023-11-19T11:21:33;1.70;;;1.10;;
4694;SDS011;2361;49.540;8.390;2023-11-19T11:32:39;1.70;;;1.00;;
4694;SDS011;2361;49.540;8.390;2023-11-19T11:35:43;1.85;;;1.50;;
4694;SDS011;2361;49.540;8.390;2023-11-19T11:38:36;1.20;;;1.10;;
4694;SDS011;2361;49.540;8.390;2023-11-19T11:41:36;3.00;;;1.30;;
4694;SDS011;2361;49.540;8.390;2023-11-19T11:43:52;4.70;;;1.00;;
4694;SDS011;2361;49.540;8.390;2023-11-19T11:48:59;3.72;;;1.70;;
4694;SDS011;2361;49.540;8.390;2023-11-19T11:54:07;1.60;;;1.10;;
4694;SDS011;2361;49.540;8.390;2023-11-19T11:56:33;4.00;;;2.90;;
4694;SDS011;2361;49.540;8.390;2023-11-19T11:58:58;2.60;;;1.80;;
4694;SDS011;2361;49.540;8.390;2023-11-19T12:01:21;4.38;;;1.80;;
4694;SDS011;2361;49.540;8.390;2023-11-19T12:03:46;1.33;;;1.10;;
4694;SDS011;2361;49.540;8.390;2023-11-19T12:06:08;2.00;;;1.13;;
4694;SDS011;2361;49.540;8.390;2023-11-19T12:08:30;2.20;;;1.35;;
4694;SDS011;2361;49.540;8.390;2023-11-19T12:10:53;3.60;;;1.20;;
4694;SDS011;2361;49.540;8.390;2023-11-19T12:13:20;1.80;;;1.10;;
4694;SDS011;2361;49.540;8.390;2023-11-19T12:18:19;2.40;;;1.27;;
4694;SDS011;2361;49.540;8.390;2023-11-19T12:20:41;3.70;;;1.30;;
4694;SDS011;2361;49.540;8.390;2023-11-19T12:23:04;3.00;;;1.30;;
4694;SDS011;2361;49.540;8.390;2023-11-19T12:25:27;1.80;;;1.10;;
4694;SDS011;2361;49.540;8.390;2023-11-19T12:28:00;2.20;;;1.13;;
4694;SDS011;2361;49.540;8.390;2023-11-19T12:30:26;2.67;;;1.60;;
4694;SDS011;2361;49.540;8.390;2023-11-19T12:32:48;1.27;;;1.00;;
4694;SDS011;2361;49.540;8.390;2023-11-19T12:35:11;2.05;;;1.40;;
4694;SDS011;2361;49.540;8.390;2023-11-19T12:37:33;1.35;;;1.20;;
4694;SDS011;2361;49.540;8.390;2023-11-19T12:40:02;1.63;;;1.10;;
4694;SDS011;2361;49.540;8.390;2023-11-19T12:42:37;2.20;;;1.30;;
4694;SDS011;2361;49.540;8.390;2023-11-19T12:45:00;2.22;;;1.20;;
4694;SDS011;2361;49.540;8.390;2023-11-19T12:47:22;2.40;;;1.13;;
4694;SDS011;2361;49.540;8.390;2023-11-19T12:49:54;3.10;;;1.10;;
4694;SDS011;2361;49.540;8.390;2023-11-19T12:52:20;1.52;;;0.95;;
4694;SDS011;2361;49.540;8.390;2023-11-19T12:54:43;1.10;;;1.00;;
4694;SDS011;2361;49.540;8.390;2023-11-19T12:57:05;2.08;;;1.08;;
4694;SDS011;2361;49.540;8.390;2023-11-19T12:59:28;1.73;;;1.10;;
4694;SDS011;2361;49.540;8.390;2023-11-19T13:01:56;1.92;;;1.30;;
4694;SDS011;2361;49.540;8.390;2023-11-19T13:04:19;3.60;;;1.50;;
4694;SDS011;2361;49.540;8.390;2023-11-19T13:06:44;1.50;;;1.20;;
4694;SDS011;2361;49.540;8.390;2023-11-19T13:09:28;1.80;;;0.98;;
4694;SDS011;2361;49.540;8.390;2023-11-19T13:11:50;2.80;;;0.80;;
4694;SDS011;2361;49.540;8.390;2023-11-19T13:14:13;2.25;;;1.05;;
4694;SDS011;2361;49.540;8.390;2023-11-19T13:16:36;3.17;;;1.00;;
4694;SDS011;2361;49.540;8.390;2023-11-19T13:18:59;2.15;;;0.90;;
4694;SDS011;2361;49.540;8.390;2023-11-19T13:21:22;1.70;;;1.00;;
4694;SDS011;2361;49.540;8.390;2023-11-19T13:23:45;1.40;;;1.00;;
4694;SDS011;2361;49.540;8.390;2023-11-19T13:26:07;2.60;;;1.10;;
4694;SDS011;2361;49.540;8.390;2023-11-19T13:28:29;2.85;;;1.00;;
4694;SDS011;2361;49.540;8.390;2023-11-19T13:30:51;1.80;;;1.00;;
4694;SDS011;2361;49.540;8.390;2023-11-19T13:33:14;3.13;;;1.20;;
4694;SDS011;2361;49.540;8.390;2023-11-19T13:35:36;4.00;;;1.10;;
4694;SDS011;2361;49.540;8.390;2023-11-19T13:37:59;1.10;;;1.00;;
4694;SDS011;2361;49.540;8.390;2023-11-19T13:40:21;2.17;;;1.00;;
4694;SDS011;2361;49.540;8.390;2023-11-19T13:42:45;8.60;;;5.32;;
4694;SDS011;2361;49.540;8.390;2023-11-19T13:45:08;5.20;;;2.80;;
4694;SDS011;2361;49.540;8.390;2023-11-19T13:47:34;4.80;;;1.70;;
4694;SDS011;2361;49.540;8.390;2023-11-19T13:49:56;3.33;;;1.40;;
4694;SDS011;2361;49.540;8.390;2023-11-19T13:52:18;2.88;;;1.63;;
4694;SDS011;2361;49.540;8.390;2023-11-19T13:54:40;4.20;;;2.90;;
4694;SDS011;2361;49.540;8.390;2023-11-19T13:57:02;3.60;;;1.50;;
4694;SDS011;2361;49.540;8.390;2023-11-19T13:59:25;2.50;;;1.02;;
4694;SDS011;2361;49.540;8.390;2023-11-19T14:01:47;0.93;;;0.83;;
4694;SDS011;2361;49.540;8.390;2023-11-19T14:04:10;1.02;;;0.93;;
4694;SDS011;2361;49.540;8.390;2023-11-19T14:06:32;3.70;;;1.00;;
4694;SDS011;2361;49.540;8.390;2023-11-19T14:08:54;0.90;;;0.80;;
4694;SDS011;2361;49.540;8.390;2023-11-19T14:11:16;1.93;;;0.90;;
4694;SDS011;2361;49.540;8.390;2023-11-19T14:13:41;2.13;;;0.90;;
4694;SDS011;2361;49.540;8.390;2023-11-19T14:16:03;2.67;;;0.90;;
4694;SDS011;2361;49.540;8.390;2023-11-19T14:18:32;2.15;;;0.98;;
4694;SDS011;2361;49.540;8.390;2023-11-19T14:20:59;2.80;;;0.82;;
4694;SDS011;2361;49.540;8.390;2023-11-19T14:23:21;1.63;;;0.73;;
4694;SDS011;2361;49.540;8.390;2023-11-19T14:25:43;1.67;;;0.90;;
4694;SDS011;2361;49.540;8.390;2023-11-19T14:28:05;1.88;;;1.00;;
4694;SDS011;2361;49.540;8.390;2023-11-19T14:30:27;3.00;;;0.90;;
4694;SDS011;2361;49.540;8.390;2023-11-19T14:32:49;3.72;;;1.00;;
4694;SDS011;2361;49.540;8.390;2023-11-19T14:35:11;3.17;;;1.00;;
4694;SDS011;2361;49.540;8.390;2023-11-19T14:37:33;2.80;;;1.00;;
4694;SDS011;2361;49.540;8.390;2023-11-19T14:39:55;1.73;;;1.10;;
4694;SDS011;2361;49.540;8.390;2023-11-19T14:42:19;2.30;;;1.00;;
4694;SDS011;2361;49.540;8.390;2023-11-19T14:44:40;4.43;;;1.20;;
4694;SDS011;2361;49.540;8.390;2023-11-19T14:47:02;1.52;;;1.42;;
4694;SDS011;2361;49.540;8.390;2023-11-19T14:49:25;2.70;;;1.20;;
4694;SDS011;2361;49.540;8.390;2023-11-19T14:51:48;2.38;;;0.80;;
4694;SDS011;2361;49.540;8.390;2023-11-19T14:54:10;1.65;;;1.10;;
4694;SDS011;2361;49.540;8.390;2023-11-19T14:56:32;2.80;;;1.08;;
4694;SDS011;2361;49.540;8.390;2023-11-19T14:58:54;1.90;;;1.10;;
4694;SDS011;2361;49.540;8.390;2023-11-19T15:01:16;6.63;;;3.20;;
4694;SDS011;2361;49.540;8.390;2023-11-19T15:03:38;4.18;;;2.47;;
4694;SDS011;2361;49.540;8.390;2023-11-19T15:06:02;1.42;;;0.80;;
4694;SDS011;2361;49.540;8.390;2023-11-19T15:08:25;1.25;;;1.00;;